Terminal Aerodrome Forecast
Issued by NWS

Home | Current Version | Previous Version | Text Only | Print | Product List | Glossary On
Versions: 1 2 3 4 5 6 7 8 9 10 11 12 13 14
000
FTUS44 KCRP 292335
TAFALI
TAF
KALI 292335Z 3000/3024 13009KT P6SM FEW020 BKN200
     FM300900 15003KT 5SM BR SCT015
      TEMPO 3009/3013 3SM BR BKN015
     FM301330 16010KT P6SM SCT020 SCT035
     FM301900 14013KT P6SM SCT050=

USA.gov is the U.S. government's official web portal to all federal, state and local government web resources and services.